M I D A S
Marine Information and Data Acquisition System
Tripno 1057 of the Zeeleeuw from 2006-03-28 06:42:22 to 2006-03-28 11:14:48
Back to CruiseResearch ActivitiesStationsMapUnderway DataData graphs

EquipmentUnitsComment
TimeDGPSUTC
LatitudeDGPSDM.mWGS84
LongitudeDGPSDM.mWGS84
HeadingGyrodeg 
SOGDGPSknotsSpeed over ground
COGDGPSdegCourse over ground
DepthEcho soundermeters200 kHz
Missing or incorrect values are displayed as -999
Navigation data collected by the RV Zeeleeuw from 2006-03-28 06:41:08 to 2006-03-28 11:26:33
Time Latitude Longitude Heading SOG COG Depth
2006-03-28 06:42:13 51°13.612 2°56.035 113.9 2.8 291 -999
2006-03-28 06:43:13 51°13.632 2°55.959 120.7 3.5 295 -999
2006-03-28 06:44:13 51°13.663 2°55.873 127.1 3.8 304 -999
2006-03-28 06:45:14 51°13.698 2°55.79 117.4 3.3 298 -999
2006-03-28 06:46:14 51°13.709 2°55.739 86.1 0.6 268 -999
2006-03-28 06:47:14 51°13.715 2°55.746 31.9 0.1 342 -999
2006-03-28 06:48:14 51°13.702 2°55.735 12 0.2 315 -999
2006-03-28 06:49:13 51°13.743 2°55.704 335.4 5.4 331 4.6
2006-03-28 06:50:14 51°13.857 2°55.609 339.7 8.5 334 -999
2006-03-28 06:51:14 51°13.978 2°55.525 341.5 7.4 337 -999
2006-03-28 06:52:14 51°14.079 2°55.454 340.5 6.3 336 -999
2006-03-28 06:53:14 51°14.167 2°55.382 333.8 5.8 329 -999
2006-03-28 06:54:14 51°14.241 2°55.29 320.2 5.6 316 -999
2006-03-28 06:55:14 51°14.305 2°55.183 316.6 5.6 313 -999
2006-03-28 06:56:13 51°14.369 2°55.069 313.7 6.8 311 8.9
2006-03-28 06:57:13 51°14.413 2°54.843 280.6 10.1 273 8.7
2006-03-28 06:58:13 51°14.41 2°54.545 273.3 11.8 267 8.9
2006-03-28 06:59:13 51°14.347 2°54.237 244.6 13 240 8
2006-03-28 07:00:13 51°14.233 2°53.935 245.4 13.4 241 7.9
2006-03-28 07:01:14 51°14.122 2°53.617 243.8 13.6 239 8
2006-03-28 07:02:13 51°14.008 2°53.31 245.9 13.7 241 8.3
2006-03-28 07:03:13 51°13.889 2°52.995 243.9 13.9 239 8.5
2006-03-28 07:04:13 51°13.77 2°52.679 244.3 13.9 240 8.6
2006-03-28 07:05:13 51°13.648 2°52.364 243.4 13.9 240 8.7
2006-03-28 07:06:13 51°13.531 2°52.045 244 14 239 9
2006-03-28 07:07:13 51°13.413 2°51.724 243.1 14 238 9.1
2006-03-28 07:08:13 51°13.294 2°51.406 244.6 14 240 9.1
2006-03-28 07:09:14 51°13.176 2°51.081 244.3 14 240 9.3
2006-03-28 07:10:14 51°13.061 2°50.757 245 14 240 9.3
2006-03-28 07:11:14 51°12.944 2°50.436 244.4 14 240 9.5
2006-03-28 07:12:14 51°12.828 2°50.114 244.1 14 239 9.5
2006-03-28 07:13:14 51°12.712 2°49.796 243.1 13.9 240 9.6
2006-03-28 07:14:14 51°12.598 2°49.476 244 14 241 9.7
2006-03-28 07:15:14 51°12.484 2°49.155 244.5 13.8 240 9.7
2006-03-28 07:16:14 51°12.37 2°48.836 245 13.9 241 9.8
2006-03-28 07:17:14 51°12.255 2°48.518 242.9 13.8 239 9.9
2006-03-28 07:18:14 51°12.142 2°48.197 244.6 13.9 241 9.9
2006-03-28 07:19:14 51°12.026 2°47.879 244.9 13.8 241 9.8
2006-03-28 07:20:13 51°11.914 2°47.564 244.9 13.9 241 9.8
2006-03-28 07:21:14 51°11.8 2°47.238 243.6 13.9 240 9.6
2006-03-28 07:22:14 51°11.689 2°46.918 244.5 13.9 241 9.4
2006-03-28 07:23:14 51°11.58 2°46.597 244.3 13.8 240 9.2
2006-03-28 07:24:14 51°11.471 2°46.276 245.5 13.8 242 9.2
2006-03-28 07:25:14 51°11.358 2°45.963 242.3 13.6 241 8.8
2006-03-28 07:26:14 51°11.267 2°45.631 250.1 13.7 246 8.9
2006-03-28 07:27:14 51°11.174 2°45.301 251.2 13.7 248 8.9
2006-03-28 07:28:14 51°11.085 2°44.969 251.3 13.6 248 8.8
2006-03-28 07:29:14 51°10.993 2°44.638 248.8 13.6 246 8.8
2006-03-28 07:30:14 51°10.904 2°44.304 250.5 13.8 246 8.7
2006-03-28 07:31:14 51°10.814 2°43.968 252.7 13.8 249 8.7
2006-03-28 07:32:14 51°10.726 2°43.632 250.7 13.7 248 8.6
2006-03-28 07:33:14 51°10.635 2°43.303 246.9 13.6 243 8.5
2006-03-28 07:34:12 51°10.558 2°42.978 255.6 13.6 252 8.4
2006-03-28 07:35:14 51°10.471 2°42.632 250.4 13.6 248 8.4
2006-03-28 07:36:14 51°10.395 2°42.291 254 13.6 250 8.4
2006-03-28 07:37:14 51°10.316 2°41.952 254.7 13.6 251 8.6
2006-03-28 07:38:14 51°10.235 2°41.617 250.4 13.6 247 8.7
2006-03-28 07:39:14 51°10.158 2°41.277 255.1 13.6 251 8.8
2006-03-28 07:40:14 51°10.08 2°40.939 252.1 13.6 250 9.1
2006-03-28 07:41:14 51°10.006 2°40.601 252.1 13.5 250 9.2
2006-03-28 07:42:14 51°9.929 2°40.264 253.3 13.6 250 9.4
2006-03-28 07:43:14 51°9.853 2°39.927 253.7 13.6 251 9.5
2006-03-28 07:44:14 51°9.776 2°39.59 252.5 13.6 250 9.6
2006-03-28 07:45:13 51°9.701 2°39.258 252.1 13.5 249 9.7
2006-03-28 07:46:14 51°9.625 2°38.915 253.9 13.5 251 10.1
2006-03-28 07:47:14 51°9.55 2°38.582 253.3 13.3 251 10.2
2006-03-28 07:48:14 51°9.473 2°38.25 252.3 13.4 250 10.2
2006-03-28 07:49:14 51°9.399 2°37.916 252.3 13.4 250 10.3
2006-03-28 07:50:14 51°9.325 2°37.583 253.2 13.4 251 10.5
2006-03-28 07:51:14 51°9.251 2°37.246 253.4 13.4 251 10.7
2006-03-28 07:52:14 51°9.177 2°36.911 254.6 13.4 252 11.1
2006-03-28 07:53:14 51°9.102 2°36.576 253.1 13.5 250 11.4
2006-03-28 07:54:14 51°9.03 2°36.233 253.1 13.7 250 12.2
2006-03-28 07:55:14 51°8.953 2°35.893 253.9 13.6 251 12.9
2006-03-28 07:56:14 51°8.868 2°35.558 250.4 13.5 248 13.5
2006-03-28 07:57:14 51°8.782 2°35.226 250.4 13.6 248 14.2
2006-03-28 07:58:14 51°8.695 2°34.891 250.9 13.7 248 15
2006-03-28 07:59:14 51°8.607 2°34.557 251.1 13.7 248 15.8
2006-03-28 08:00:14 51°8.517 2°34.223 249.7 13.6 247 16.3
2006-03-28 08:01:14 51°8.422 2°33.895 246.2 13.7 244 16.4
2006-03-28 08:02:14 51°8.323 2°33.573 245.5 13.4 242 16.4
2006-03-28 08:03:14 51°8.214 2°33.263 243 13.5 241 16.2
2006-03-28 08:04:14 51°8.109 2°32.951 245.5 13.4 244 16
2006-03-28 08:05:14 51°8.078 2°32.606 271.9 13.1 270 16.7
2006-03-28 08:06:14 51°8.18 2°32.34 335 12.3 338 16.3
2006-03-28 08:07:14 51°8.364 2°32.432 35.3 12.4 28 18.1
2006-03-28 08:08:14 51°8.555 2°32.554 28.7 12.4 27 18.6
2006-03-28 08:09:14 51°8.725 2°32.731 40.6 12.2 38 18.5
2006-03-28 08:10:12 51°8.88 2°32.927 45.9 12.3 42 18.3
2006-03-28 08:11:14 51°9.041 2°33.146 44.1 12.5 38 18
2006-03-28 08:12:14 51°9.2 2°33.365 49.2 12.7 44 16.7
2006-03-28 08:13:14 51°9.334 2°33.615 60.9 12.5 57 16.2
2006-03-28 08:14:14 51°9.451 2°33.892 62.3 12.7 56 16.2
2006-03-28 08:15:13 51°9.563 2°34.167 59.9 12.9 62 15.6
2006-03-28 08:16:14 51°9.684 2°34.449 60.1 12.7 57 14.3
2006-03-28 08:17:14 51°9.802 2°34.73 60.1 12.9 55 14
2006-03-28 08:18:14 51°9.917 2°35.019 61.9 12.9 58 13
2006-03-28 08:19:14 51°10.028 2°35.309 59.3 12.7 55 11.9
2006-03-28 08:20:14 51°10.15 2°35.58 58.7 12.6 55 11.2
2006-03-28 08:21:14 51°10.275 2°35.85 57.3 12.5 53 10.4
2006-03-28 08:22:13 51°10.396 2°36.112 58 12.4 55 10.4
2006-03-28 08:23:13 51°10.518 2°36.381 57.2 12.5 51 9.8
2006-03-28 08:24:12 51°10.643 2°36.64 58 12.5 53 9.9
2006-03-28 08:25:14 51°10.763 2°36.927 58.9 12.5 54 9.8
2006-03-28 08:26:12 51°10.887 2°37.181 57.1 12.5 54 10.2
2006-03-28 08:27:13 51°11.017 2°37.446 55.5 12.5 51 10.2
2006-03-28 08:28:14 51°11.143 2°37.715 60.2 12.6 54 10.1
2006-03-28 08:29:13 51°11.262 2°37.981 58.1 12.4 55 10.3
2006-03-28 08:30:14 51°11.39 2°38.256 54.7 12.6 51 9.8
2006-03-28 08:31:13 51°11.518 2°38.514 56.1 12.5 53 10.1
2006-03-28 08:32:14 51°11.649 2°38.784 55.8 12.4 51 10.1
2006-03-28 08:33:14 51°11.776 2°39.047 56.2 12.2 55 10.1
2006-03-28 08:34:14 51°11.901 2°39.311 56.9 12.5 55 10.3
2006-03-28 08:35:14 51°12.024 2°39.574 58.2 12.6 55 10.5
2006-03-28 08:36:14 51°12.147 2°39.837 56.2 12.3 51 10.8
2006-03-28 08:37:14 51°12.271 2°40.098 54.2 12.2 51 11.1
2006-03-28 08:38:12 51°12.392 2°40.352 58.6 12.4 51 11.6
2006-03-28 08:39:14 51°12.524 2°40.621 52.2 12.3 54 12.1
2006-03-28 08:40:12 51°12.645 2°40.877 55.8 12.6 52 11.9
2006-03-28 08:41:14 51°12.78 2°41.145 57.2 12.3 56 12.2
2006-03-28 08:42:14 51°12.89 2°41.426 65.5 12.6 62 12.1
2006-03-28 08:43:13 51°12.992 2°41.716 62.6 13 59 12
2006-03-28 08:44:14 51°13.107 2°41.999 58.7 12.7 57 12.1
2006-03-28 08:45:14 51°13.218 2°42.278 60 12.2 58 12.1
2006-03-28 08:46:14 51°13.333 2°42.546 58.2 12.2 55 12.1
2006-03-28 08:47:12 51°13.454 2°42.792 55.6 12.2 55 12.2
2006-03-28 08:48:14 51°13.58 2°43.061 55.3 12.4 55 12.2
2006-03-28 08:49:13 51°13.707 2°43.313 52 12.5 52 12.1
2006-03-28 08:50:13 51°13.832 2°43.57 55.8 12.4 52 12
2006-03-28 08:51:14 51°13.954 2°43.844 56.6 12.5 55 11.6
2006-03-28 08:52:14 51°14.069 2°44.117 59.3 12.4 58 11.2
2006-03-28 08:53:14 51°14.191 2°44.388 56.9 12.7 56 11.1
2006-03-28 08:54:14 51°14.314 2°44.662 58.7 12.6 57 10.9
2006-03-28 08:55:14 51°14.441 2°44.935 58.2 12.8 56 11
2006-03-28 08:56:12 51°14.567 2°45.198 55.8 12.9 55 11.3
2006-03-28 08:57:12 51°14.695 2°45.48 56.9 13.3 54 11.6
2006-03-28 08:58:12 51°14.824 2°45.754 55.4 12.9 53 11.9
2006-03-28 08:59:12 51°14.943 2°46.043 60 13.2 56 12
2006-03-28 09:00:14 51°15.079 2°46.332 52.9 13.2 50 12.3
2006-03-28 09:01:14 51°15.213 2°46.611 55 13.1 52 12.7
2006-03-28 09:02:14 51°15.343 2°46.903 58.2 13.5 55 13
2006-03-28 09:03:13 51°15.469 2°47.188 57.5 13.5 54 13.6
2006-03-28 09:04:14 51°15.603 2°47.48 56.5 13.5 55 14.1
2006-03-28 09:05:13 51°15.743 2°47.746 52.3 13.3 50 14.9
2006-03-28 09:06:13 51°15.883 2°48.021 51.6 13.3 48 15.4
2006-03-28 09:07:14 51°16.024 2°48.301 51.1 13.2 52 15.9
2006-03-28 09:08:13 51°16.164 2°48.576 54.1 13.7 50 16.1
2006-03-28 09:09:14 51°16.311 2°48.854 51.9 13.4 51 16.5
2006-03-28 09:10:14 51°16.452 2°49.131 54.1 13.4 51 16.5
2006-03-28 09:11:14 51°16.591 2°49.407 52 13.4 51 15.5
2006-03-28 09:12:13 51°16.729 2°49.671 53.9 13.3 51 13
2006-03-28 09:13:14 51°16.863 2°49.949 52.3 12.9 52 13.2
2006-03-28 09:14:13 51°17.01 2°50.193 43.1 12.8 44 12.1
2006-03-28 09:15:14 51°17.182 2°50.403 34.1 12.7 37 10
2006-03-28 09:16:15 51°17.364 2°50.595 34.8 13.4 31 11.1
2006-03-28 09:17:15 51°17.541 2°50.797 41.3 13.3 43 10.9
2006-03-28 09:18:15 51°17.679 2°51.069 57 13.7 57 11
2006-03-28 09:19:15 51°17.795 2°51.372 60.5 13.7 56 11.3
2006-03-28 09:20:15 51°17.913 2°51.675 60.1 13.6 60 11.6
2006-03-28 09:21:15 51°18.016 2°51.996 66.6 13.6 66 11.9
2006-03-28 09:22:15 51°18.11 2°52.322 65.5 13.3 64 11.9
2006-03-28 09:23:15 51°18.212 2°52.636 63 13.2 62 12.1
2006-03-28 09:24:15 51°18.313 2°52.957 68.4 13.7 65 12.3
2006-03-28 09:25:15 51°18.406 2°53.28 66 13.1 63 12.4
2006-03-28 09:26:15 51°18.495 2°53.608 69.2 14 64 12.2
2006-03-28 09:27:15 51°18.591 2°53.929 66.4 13.2 66 12.4
2006-03-28 09:28:15 51°18.687 2°54.248 67.5 13.4 63 12.4
2006-03-28 09:29:15 51°18.783 2°54.572 68.9 13.9 64 12.4
2006-03-28 09:30:14 51°18.882 2°54.889 69.3 13.7 64 12.5
2006-03-28 09:31:15 51°18.982 2°55.219 68.1 13.5 66 12.3
2006-03-28 09:32:15 51°19.062 2°55.557 70 13.8 66 12.2
2006-03-28 09:33:15 51°19.152 2°55.892 71.5 13.5 66 12
2006-03-28 09:34:15 51°19.235 2°56.23 70.3 14 67 11.9
2006-03-28 09:35:15 51°19.322 2°56.567 71.7 13.9 68 11.7
2006-03-28 09:36:15 51°19.406 2°56.908 72.3 14 69 11.6
2006-03-28 09:37:15 51°19.49 2°57.252 72.7 13.8 68 11.6
2006-03-28 09:38:15 51°19.581 2°57.59 70.8 14.1 68 11.5
2006-03-28 09:39:15 51°19.673 2°57.931 69.4 14.1 67 11.2
2006-03-28 09:40:15 51°19.755 2°58.277 71.7 14.3 67 11.1
2006-03-28 09:41:15 51°19.842 2°58.62 70.9 14.1 68 11.3
2006-03-28 09:42:15 51°19.936 2°58.959 68.4 14 66 11.4
2006-03-28 09:43:15 51°20.034 2°59.3 66.5 14.4 65 11.2
2006-03-28 09:44:15 51°20.123 2°59.651 69.3 14.2 69 11.4
2006-03-28 09:45:15 51°20.214 3°0.003 71.7 13.7 66 11.5
2006-03-28 09:46:15 51°20.308 3°0.353 67.5 13.9 66 11.6
2006-03-28 09:47:15 51°20.406 3°0.698 66.5 14.3 67 11.5
2006-03-28 09:48:15 51°20.512 3°1.038 66.1 14.1 64 11.8
2006-03-28 09:49:15 51°20.612 3°1.383 68.6 14.8 66 11.6
2006-03-28 09:50:15 51°20.709 3°1.738 70.7 14.9 67 11.6
2006-03-28 09:51:15 51°20.804 3°2.091 71.1 14.4 67 11.8
2006-03-28 09:52:15 51°20.893 3°2.453 73 14.7 69 11.8
2006-03-28 09:53:15 51°20.987 3°2.809 71.9 15.1 69 11.9
2006-03-28 09:54:15 51°21.083 3°3.172 67 14.4 68 12
2006-03-28 09:55:15 51°21.177 3°3.534 68.3 14.5 66 12.3
2006-03-28 09:56:15 51°21.275 3°3.89 70.2 14.9 67 12.3
2006-03-28 09:57:15 51°21.373 3°4.251 68.5 14.7 68 12.4
2006-03-28 09:58:15 51°21.466 3°4.612 73.2 14.9 69 12.6
2006-03-28 09:59:15 51°21.552 3°4.982 73.9 15.2 70 12.7
2006-03-28 10:00:15 51°21.632 3°5.356 76.8 14.8 71 12.9
2006-03-28 10:01:15 51°21.714 3°5.725 72.9 14.6 70 12.9
2006-03-28 10:02:15 51°21.796 3°6.1 74 14.8 68 13.1
2006-03-28 10:03:15 51°21.854 3°6.484 84.9 14.7 80 13.3
2006-03-28 10:04:15 51°21.888 3°6.879 93.5 14.4 87 13.4
2006-03-28 10:05:15 51°21.841 3°7.253 118.8 14 116 13.2
2006-03-28 10:06:15 51°21.691 3°7.513 155.6 12.7 150 12.7
2006-03-28 10:07:15 51°21.517 3°7.474 218.3 10.8 207 12.1
2006-03-28 10:08:15 51°21.357 3°7.34 217.5 10.8 209 11.4
2006-03-28 10:09:15 51°21.199 3°7.204 217.7 10.8 208 10.6
2006-03-28 10:10:15 51°21.042 3°7.068 218.3 10.7 207 10
2006-03-28 10:11:15 51°20.887 3°6.933 218.1 10.6 210 9.7
2006-03-28 10:12:15 51°20.732 3°6.799 218.4 10.5 208 9.8
2006-03-28 10:13:15 51°20.578 3°6.668 218.6 10.4 208 9.8
2006-03-28 10:14:15 51°20.425 3°6.539 217.7 10.5 206 10
2006-03-28 10:15:15 51°20.281 3°6.398 224.1 10.1 215 10.1
2006-03-28 10:16:15 51°20.15 3°6.232 231.1 10 222 10.3
2006-03-28 10:17:15 51°20.034 3°6.048 233.8 9.7 226 10.1
2006-03-28 10:18:15 51°19.928 3°5.854 238 9.8 230 10.3
2006-03-28 10:19:15 51°19.824 3°5.652 237.5 9.8 231 10.3
2006-03-28 10:20:15 51°19.718 3°5.452 237.7 9.7 230 10.1
2006-03-28 10:21:15 51°19.613 3°5.255 237.3 9.6 229 10.1
2006-03-28 10:22:15 51°19.508 3°5.058 237.3 9.7 230 10.4
2006-03-28 10:23:15 51°19.406 3°4.847 239.7 10.2 232 10.2
2006-03-28 10:24:15 51°19.304 3°4.63 238.9 10.4 233 10.5
2006-03-28 10:25:15 51°19.201 3°4.41 240 10.4 233 10.6
2006-03-28 10:26:15 51°19.101 3°4.196 239.9 9.8 234 10.8
2006-03-28 10:27:15 51°19.008 3°3.989 239.7 9.6 234 11
2006-03-28 10:28:15 51°18.919 3°3.775 242.6 9.8 238 11.1
2006-03-28 10:29:15 51°18.83 3°3.55 243 9.9 238 11.1
2006-03-28 10:30:15 51°18.748 3°3.327 244.5 9.8 241 11.2
2006-03-28 10:31:15 51°18.665 3°3.108 243.6 9.6 239 11.2
2006-03-28 10:32:15 51°18.585 3°2.888 243.8 9.5 239 11.3
2006-03-28 10:33:15 51°18.507 3°2.671 245.1 9.3 241 11.4
2006-03-28 10:34:15 51°18.432 3°2.454 245.1 9.2 240 11.6
2006-03-28 10:35:15 51°18.359 3°2.238 245.9 9.3 243 11.4
2006-03-28 10:36:15 51°18.283 3°2.017 245.4 9.4 242 11.6
2006-03-28 10:37:15 51°18.206 3°1.794 245.7 9.8 241 11.8
2006-03-28 10:38:15 51°18.131 3°1.57 245.7 9.5 244 11.7
2006-03-28 10:39:15 51°18.057 3°1.354 243.7 9.2 240 11.9
2006-03-28 10:40:15 51°17.982 3°1.139 243.7 9.4 240 11.9
2006-03-28 10:41:15 51°17.903 3°0.921 243.4 9.5 239 11.9
2006-03-28 10:42:15 51°17.824 3°0.699 245.1 9.6 240 11.7
2006-03-28 10:43:15 51°17.742 3°0.477 244.5 9.8 238 12
2006-03-28 10:44:15 51°17.657 3°0.253 244.8 9.9 241 12.1
2006-03-28 10:45:15 51°17.572 3°0.026 244.1 10 240 12.1
2006-03-28 10:46:15 51°17.491 2°59.799 245.2 9.7 240 12.1
2006-03-28 10:47:15 51°17.41 2°59.575 244.9 9.8 241 12.1
2006-03-28 10:48:15 51°17.33 2°59.348 245.8 9.8 241 12.2
2006-03-28 10:49:15 51°17.251 2°59.121 245.8 9.9 241 12.5
2006-03-28 10:50:15 51°17.172 2°58.893 245 9.8 241 12.3
2006-03-28 10:51:15 51°17.091 2°58.664 244.8 9.8 240 12.2
2006-03-28 10:52:15 51°17.012 2°58.433 245.2 10 242 12.3
2006-03-28 10:53:15 51°16.93 2°58.199 244.8 10.1 241 12.3
2006-03-28 10:54:15 51°16.848 2°57.963 245.6 10.2 242 12.4
2006-03-28 10:55:15 51°16.766 2°57.726 244.5 10.3 241 12.5
2006-03-28 10:56:15 51°16.686 2°57.486 245.5 10.3 241 12.6
2006-03-28 10:57:15 51°16.604 2°57.245 245.9 10.3 242 12.6
2006-03-28 10:58:15 51°16.524 2°57.002 245.3 10.3 242 12.6
2006-03-28 10:59:15 51°16.446 2°56.76 245.6 10.2 243 12.7
2006-03-28 11:00:15 51°16.367 2°56.517 244.5 10.3 241 12.7
2006-03-28 11:01:15 51°16.288 2°56.274 244.4 10.4 242 12.7
2006-03-28 11:02:15 51°16.211 2°56.034 245.3 10.3 244 12.7
2006-03-28 11:03:15 51°16.121 2°55.804 232.9 10.3 227 12.8
2006-03-28 11:04:15 51°15.992 2°55.621 226.2 10.5 220 12.8
2006-03-28 11:05:15 51°15.854 2°55.454 221.7 10.5 214 12.6
2006-03-28 11:06:15 51°15.725 2°55.33 218 6.7 205 12.5
2006-03-28 11:07:15 51°15.589 2°55.237 214.5 10.2 206 12.1
2006-03-28 11:08:15 51°15.421 2°55.149 204.6 10.8 196 11.6
2006-03-28 11:09:15 51°15.248 2°55.061 203.9 11 193 11.4
2006-03-28 11:10:15 51°15.074 2°55.012 203.1 10.2 192 11.8
2006-03-28 11:11:15 51°14.908 2°54.948 204.7 10.3 195 11.8
2006-03-28 11:12:15 51°14.737 2°54.891 201.3 10.6 190 12.3
2006-03-28 11:13:15 51°14.556 2°54.904 179.8 11.5 163 12.4
2006-03-28 11:14:15 51°14.395 2°55.058 145.8 11.6 134 13.1
2006-03-28 11:15:15 51°14.263 2°55.271 137.1 10.8 135 -999
2006-03-28 11:16:15 51°14.128 2°55.427 158.8 9 157 -999
2006-03-28 11:17:15 51°14.007 2°55.508 160.2 6.8 157 12.7
2006-03-28 11:18:15 51°13.908 2°55.579 160.1 6.5 155 -999
2006-03-28 11:19:15 51°13.818 2°55.644 161.8 4.9 156 -999
2006-03-28 11:20:15 51°13.761 2°55.701 142.9 3.7 137 -999
2006-03-28 11:21:15 51°13.722 2°55.772 135.2 3.7 129 -999
2006-03-28 11:22:15 51°13.679 2°55.86 130.6 4.5 126 -999
2006-03-28 11:23:14 51°13.638 2°55.956 130.8 4 123 12.3
2006-03-28 11:24:17 51°13.611 2°56.038 117.9 3 112 12.3
2006-03-28 11:25:18 51°13.601 2°56.085 120.1 0.4 149 -999
2006-03-28 11:26:18 51°13.599 2°56.094 127.1 0.4 121 -999